createdAt,value
2023-07-25T00:02:02.857Z,63.40
2023-07-25T00:04:30.769Z,63.30
2023-07-25T00:06:58.701Z,63.30
2023-07-25T00:09:26.589Z,63.30
2023-07-25T00:11:54.540Z,63.20
2023-07-25T00:14:23.868Z,63.20
2023-07-25T00:16:51.841Z,63.30
2023-07-25T00:19:19.817Z,63.20
2023-07-25T00:21:47.781Z,63.30
2023-07-25T00:24:15.830Z,63.20
2023-07-25T00:26:43.900Z,63.20
2023-07-25T00:29:11.943Z,63.20
2023-07-25T00:31:41.263Z,63.20
2023-07-25T00:34:09.398Z,63.20
2023-07-25T00:36:37.336Z,63.20
2023-07-25T00:39:05.350Z,63.20
2023-07-25T00:41:33.640Z,63.20
2023-07-25T00:44:01.788Z,63.20
2023-07-25T00:46:29.746Z,63.30
2023-07-25T00:48:59.168Z,63.20
2023-07-25T00:51:27.163Z,63.30
2023-07-25T00:53:55.115Z,63.20
2023-07-25T00:56:23.369Z,63.20
2023-07-25T00:58:51.597Z,63.20
2023-07-25T01:01:19.605Z,63.20
2023-07-25T01:03:47.672Z,63.20
2023-07-25T01:06:18.350Z,63.20
2023-07-25T01:08:49.948Z,63.20
2023-07-25T01:11:18.039Z,63.10
2023-07-25T01:13:46.448Z,63.10
2023-07-25T01:16:15.159Z,63.20
2023-07-25T01:18:43.788Z,63.20
2023-07-25T01:21:11.890Z,63.20
2023-07-25T01:23:41.539Z,63.20
2023-07-25T01:26:11.031Z,63.20
2023-07-25T01:28:39.455Z,63.10
2023-07-25T01:31:07.385Z,63.10
2023-07-25T01:33:35.305Z,63.10
2023-07-25T01:36:03.335Z,63.10
2023-07-25T01:38:31.259Z,63.20
2023-07-25T01:40:59.192Z,63.20
2023-07-25T01:43:28.443Z,63.30
2023-07-25T01:45:57.186Z,63.10
2023-07-25T01:48:25.123Z,63.20
2023-07-25T01:50:53.040Z,63.10
2023-07-25T01:53:20.940Z,63.10
2023-07-25T01:55:48.880Z,63.20
2023-07-25T01:58:16.758Z,63.20
2023-07-25T02:00:46.076Z,63.20
2023-07-25T02:03:17.109Z,63.20
2023-07-25T02:05:45.139Z,63.20
2023-07-25T02:08:14.920Z,63.20
2023-07-25T02:10:42.847Z,63.30
2023-07-25T02:13:10.818Z,63.30
2023-07-25T02:15:38.965Z,63.30
2023-07-25T02:18:08.254Z,63.40
2023-07-25T02:20:36.157Z,63.40
2023-07-25T02:23:04.133Z,63.50
2023-07-25T02:25:32.150Z,63.40
2023-07-25T02:28:00.065Z,63.50
2023-07-25T02:30:28.003Z,63.50
2023-07-25T02:32:55.917Z,63.60
2023-07-25T02:35:25.268Z,63.50
2023-07-25T02:37:53.203Z,63.60
2023-07-25T02:40:21.100Z,63.60
2023-07-25T02:42:49.016Z,63.70
2023-07-25T02:45:17.042Z,63.70
2023-07-25T02:47:45.003Z,63.60
2023-07-25T02:50:13.028Z,63.70
2023-07-25T02:52:42.712Z,63.70
2023-07-25T02:55:10.841Z,63.70
2023-07-25T02:57:38.784Z,63.70
2023-07-25T03:00:08.602Z,63.70
2023-07-25T03:02:36.533Z,63.70
2023-07-25T03:05:04.569Z,63.70
2023-07-25T03:07:32.449Z,63.80
2023-07-25T03:10:01.792Z,63.80
2023-07-25T03:12:29.714Z,63.80
2023-07-25T03:14:57.655Z,63.80
2023-07-25T03:17:25.610Z,63.80
2023-07-25T03:19:53.606Z,63.80
2023-07-25T03:22:22.138Z,63.80
2023-07-25T03:24:50.608Z,63.80
2023-07-25T03:27:20.124Z,63.80
2023-07-25T03:29:48.132Z,63.80
2023-07-25T03:32:16.051Z,63.80
2023-07-25T03:34:44.044Z,63.80
2023-07-25T03:37:12.025Z,63.80
2023-07-25T03:39:39.962Z,63.70
2023-07-25T03:42:08.312Z,63.70
2023-07-25T03:44:37.619Z,63.70
2023-07-25T03:47:05.874Z,63.80
2023-07-25T03:49:33.797Z,63.60
2023-07-25T03:52:01.805Z,63.70
2023-07-25T03:54:29.722Z,63.60
2023-07-25T03:56:57.659Z,63.50
2023-07-25T03:59:25.592Z,63.50
2023-07-25T04:01:54.927Z,63.40
2023-07-25T04:04:23.172Z,63.40
2023-07-25T04:06:51.239Z,63.30
2023-07-25T04:09:19.175Z,63.30
2023-07-25T04:11:47.111Z,63.30
2023-07-25T04:14:15.016Z,63.30
2023-07-25T04:16:42.992Z,63.20
2023-07-25T04:19:12.457Z,63.10
2023-07-25T04:21:40.414Z,63.10
2023-07-25T04:24:08.334Z,63.00
2023-07-25T04:26:36.277Z,62.80
2023-07-25T04:29:04.198Z,62.80
2023-07-25T04:31:32.317Z,62.60
2023-07-25T04:34:00.784Z,62.60
2023-07-25T04:36:30.617Z,62.40
2023-07-25T04:38:58.816Z,62.40
2023-07-25T04:41:26.719Z,62.20
2023-07-25T04:43:54.648Z,62.10
2023-07-25T04:46:22.693Z,62.00
2023-07-25T04:48:50.635Z,61.90
2023-07-25T04:51:18.522Z,61.60
2023-07-25T04:53:47.812Z,61.00
2023-07-25T04:56:15.721Z,60.00
2023-07-25T04:58:43.640Z,60.10
2023-07-25T05:01:13.468Z,59.70
2023-07-25T05:03:41.588Z,59.20
2023-07-25T05:06:09.604Z,59.90
2023-07-25T05:08:37.520Z,59.50
2023-07-25T05:11:07.118Z,59.40
2023-07-25T05:13:35.052Z,58.90
2023-07-25T05:16:03.026Z,59.80
2023-07-25T05:18:31.001Z,59.40
2023-07-25T05:20:58.915Z,59.80
2023-07-25T05:23:26.837Z,58.80
2023-07-25T05:25:54.757Z,58.90
2023-07-25T05:28:24.021Z,59.70
2023-07-25T05:30:51.957Z,59.10
2023-07-25T05:33:19.883Z,58.90
2023-07-25T05:35:47.805Z,59.10
2023-07-25T05:38:15.697Z,58.80
2023-07-25T05:40:43.673Z,57.80
2023-07-25T05:43:13.569Z,58.10
2023-07-25T05:45:42.947Z,58.20
2023-07-25T05:48:10.885Z,58.80
2023-07-25T05:50:38.812Z,58.20
2023-07-25T05:53:06.700Z,59.00
2023-07-25T05:55:34.874Z,58.70
2023-07-25T05:58:02.786Z,59.30
2023-07-25T06:00:30.697Z,58.20
2023-07-25T06:03:00.092Z,58.30
2023-07-25T06:05:28.068Z,58.40
2023-07-25T06:07:56.004Z,58.90
2023-07-25T06:10:23.978Z,58.60
2023-07-25T06:12:51.906Z,58.50
2023-07-25T06:15:19.798Z,58.10
2023-07-25T06:17:47.749Z,58.30
2023-07-25T06:20:18.020Z,58.00
2023-07-25T06:22:45.964Z,58.00
2023-07-25T06:25:16.304Z,57.80
2023-07-25T06:27:44.275Z,57.00
2023-07-25T06:30:12.456Z,56.50
2023-07-25T06:32:40.406Z,55.30
2023-07-25T06:35:08.518Z,55.70
2023-07-25T06:37:38.707Z,56.40
2023-07-25T06:40:07.268Z,56.20
2023-07-25T06:42:35.191Z,55.90
2023-07-25T06:45:03.965Z,55.00
2023-07-25T06:47:32.090Z,54.30
2023-07-25T06:50:00.862Z,53.80
2023-07-25T06:52:28.843Z,54.00
2023-07-25T06:54:59.678Z,53.30
2023-07-25T06:57:29.397Z,53.10
2023-07-25T06:59:57.493Z,52.80
2023-07-25T07:02:25.539Z,52.70
2023-07-25T07:04:53.582Z,52.80
2023-07-25T07:07:21.566Z,53.00
2023-07-25T07:09:50.063Z,53.20
2023-07-25T07:12:19.406Z,53.40
2023-07-25T07:14:47.335Z,53.40
2023-07-25T07:17:15.220Z,54.10
2023-07-25T07:19:43.151Z,53.50
2023-07-25T07:22:11.062Z,53.00
2023-07-25T07:24:39.031Z,53.20
2023-07-25T07:27:07.128Z,53.30
2023-07-25T07:29:36.443Z,53.40
2023-07-25T07:32:04.567Z,51.60
2023-07-25T07:34:32.504Z,50.40
2023-07-25T07:37:00.433Z,49.50
2023-07-25T07:39:28.348Z,49.20
2023-07-25T07:41:56.465Z,48.80
2023-07-25T07:44:25.661Z,49.70
2023-07-25T07:46:55.221Z,49.70
2023-07-25T07:49:23.151Z,48.90
2023-07-25T07:52:05.465Z,47.90
2023-07-25T07:54:39.034Z,47.10
2023-07-25T07:57:07.171Z,45.80
2023-07-25T07:59:35.155Z,44.90
2023-07-25T08:02:04.645Z,43.80
2023-07-25T08:04:32.625Z,43.90
2023-07-25T08:07:00.764Z,44.10
2023-07-25T08:09:28.663Z,45.30
2023-07-25T08:11:56.613Z,45.50
2023-07-25T08:14:24.544Z,46.20
2023-07-25T08:16:52.564Z,46.90
2023-07-25T08:19:21.963Z,47.50
2023-07-25T08:21:49.879Z,47.70
2023-07-25T08:24:17.849Z,48.00
2023-07-25T08:26:45.826Z,47.40
2023-07-25T08:29:13.868Z,45.80
2023-07-25T08:31:41.906Z,41.80
2023-07-25T08:34:09.896Z,40.10
2023-07-25T08:36:39.182Z,38.60
2023-07-25T08:39:07.144Z,38.70
2023-07-25T08:41:38.474Z,38.20
2023-07-25T08:44:06.714Z,38.00
2023-07-25T08:46:37.198Z,38.30
2023-07-25T08:49:06.565Z,38.50
2023-07-25T08:51:35.467Z,38.60
2023-07-25T08:54:07.706Z,39.10
2023-07-25T08:56:36.630Z,38.10
2023-07-25T08:59:04.931Z,38.80
2023-07-25T09:01:33.379Z,38.90
2023-07-25T09:04:02.856Z,39.30
2023-07-25T09:06:32.567Z,38.80
2023-07-25T09:09:00.696Z,39.40
2023-07-25T09:11:30.332Z,38.60
2023-07-25T09:13:58.509Z,38.90
2023-07-25T09:16:26.482Z,39.20
2023-07-25T09:18:54.477Z,40.70
2023-07-25T09:21:22.438Z,41.10
2023-07-25T09:23:52.272Z,42.00
2023-07-25T09:26:22.528Z,42.10
2023-07-25T09:28:52.568Z,42.30
2023-07-25T09:31:20.858Z,42.50
2023-07-25T09:33:49.346Z,41.90
2023-07-25T09:36:17.524Z,41.00
2023-07-25T09:38:48.795Z,40.40
2023-07-25T09:41:16.890Z,39.10
2023-07-25T09:43:44.858Z,38.70
2023-07-25T09:46:14.303Z,38.20
2023-07-25T09:48:44.160Z,38.20
2023-07-25T09:51:12.799Z,38.30
2023-07-25T09:53:43.253Z,37.20
2023-07-25T09:56:11.315Z,36.90
2023-07-25T09:58:50.850Z,36.80
2023-07-25T10:01:28.917Z,37.20
2023-07-25T10:03:57.402Z,37.20
2023-07-25T10:06:26.338Z,37.40
2023-07-25T10:08:54.642Z,37.40
2023-07-25T10:11:23.054Z,37.10
2023-07-25T10:13:52.416Z,37.30
2023-07-25T10:16:21.872Z,37.90
2023-07-25T10:18:56.577Z,38.40
2023-07-25T10:21:26.976Z,38.40
2023-07-25T10:24:01.263Z,38.70
2023-07-25T10:26:29.297Z,38.90
2023-07-25T10:28:59.810Z,39.00
2023-07-25T10:31:32.777Z,38.40
2023-07-25T10:34:02.507Z,38.10
2023-07-25T10:36:30.493Z,37.90
2023-07-25T10:39:05.543Z,37.20
2023-07-25T10:41:34.039Z,36.50
2023-07-25T10:44:03.644Z,36.60
2023-07-25T10:46:33.227Z,37.40
2023-07-25T10:49:03.018Z,38.70
2023-07-25T10:51:50.896Z,39.90
2023-07-25T10:54:19.298Z,40.90
2023-07-25T10:57:05.039Z,41.40
2023-07-25T10:59:33.020Z,56.60
2023-07-25T11:02:02.582Z,42.00
2023-07-25T11:04:32.906Z,42.20
2023-07-25T11:07:09.468Z,42.30
2023-07-25T11:09:40.502Z,42.40
2023-07-25T11:12:08.927Z,42.30
2023-07-25T11:14:41.520Z,42.20
2023-07-25T11:17:09.611Z,41.90
2023-07-25T11:19:38.934Z,41.60
2023-07-25T11:22:10.003Z,41.20
2023-07-25T11:24:44.557Z,40.80
2023-07-25T11:27:12.789Z,40.20
2023-07-25T11:29:40.777Z,39.90
2023-07-25T11:32:09.446Z,38.20
2023-07-25T11:34:37.440Z,38.20
2023-07-25T11:37:11.864Z,38.30
2023-07-25T11:39:39.854Z,38.80
2023-07-25T11:42:08.764Z,39.60
2023-07-25T11:44:36.742Z,39.20
2023-07-25T11:47:04.752Z,38.80
2023-07-25T11:52:04.470Z,37.00
2023-07-25T11:54:34.896Z,35.80
2023-07-25T11:57:03.271Z,34.70
2023-07-25T11:59:37.783Z,33.40
2023-07-25T12:02:08.953Z,34.00
2023-07-25T12:04:43.424Z,33.90
2023-07-25T12:07:11.349Z,34.90
2023-07-25T12:09:41.020Z,36.40
2023-07-25T12:12:13.014Z,37.60
2023-07-25T12:14:42.290Z,38.80
2023-07-25T12:17:10.297Z,39.30
2023-07-25T12:19:38.244Z,39.90
2023-07-25T12:22:06.677Z,40.10
2023-07-25T12:24:42.465Z,40.30
2023-07-25T12:27:17.301Z,40.20
2023-07-25T12:29:45.267Z,39.80
2023-07-25T12:32:13.581Z,39.40
2023-07-25T12:34:41.568Z,39.40
2023-07-25T12:37:09.465Z,38.90
2023-07-25T12:39:37.689Z,38.00
2023-07-25T12:42:07.392Z,37.20
2023-07-25T12:44:36.198Z,36.80
2023-07-25T12:47:05.618Z,36.90
2023-07-25T12:49:34.397Z,36.10
2023-07-25T12:52:02.375Z,35.70
2023-07-25T12:54:30.353Z,36.10
2023-07-25T12:56:58.261Z,35.50
2023-07-25T12:59:27.574Z,35.80
2023-07-25T13:01:56.627Z,35.50
2023-07-25T13:04:25.077Z,35.20
2023-07-25T13:06:53.255Z,35.40
2023-07-25T13:09:21.491Z,33.20
2023-07-25T13:11:49.417Z,32.40
2023-07-25T13:14:17.358Z,32.10
2023-07-25T13:16:46.803Z,32.50
2023-07-25T13:19:14.973Z,32.80
2023-07-25T13:21:42.949Z,34.30
2023-07-25T13:24:10.901Z,34.50
2023-07-25T13:26:39.043Z,35.60
2023-07-25T13:29:07.049Z,33.80
2023-07-25T13:31:35.646Z,33.20
2023-07-25T13:34:04.938Z,34.30
2023-07-25T13:36:32.879Z,35.80
2023-07-25T13:39:00.769Z,35.80
2023-07-25T13:41:28.739Z,36.80
2023-07-25T13:43:56.647Z,37.30
2023-07-25T13:46:24.685Z,37.10
2023-07-25T13:48:52.690Z,37.70
2023-07-25T13:51:22.131Z,38.50
2023-07-25T13:53:50.037Z,38.20
2023-07-25T13:56:17.972Z,38.30
2023-07-25T13:58:47.292Z,38.30
2023-07-25T14:01:15.429Z,37.60
2023-07-25T14:03:43.388Z,37.90
2023-07-25T14:06:11.298Z,37.80
2023-07-25T14:08:40.758Z,38.10
2023-07-25T14:11:08.715Z,38.20
2023-07-25T14:13:36.717Z,38.20
2023-07-25T14:16:04.795Z,38.10
2023-07-25T14:18:32.742Z,38.10
2023-07-25T14:21:01.436Z,37.80
2023-07-25T14:23:29.434Z,37.50
2023-07-25T14:26:00.007Z,37.20
2023-07-25T14:28:27.956Z,37.20
2023-07-25T14:30:56.466Z,37.80
2023-07-25T14:33:24.402Z,36.30
2023-07-25T14:35:52.322Z,36.50
2023-07-25T14:38:20.334Z,36.00
2023-07-25T14:40:48.270Z,36.60
2023-07-25T14:43:17.639Z,37.30
2023-07-25T14:45:45.599Z,39.30
2023-07-25T14:48:13.671Z,41.30
2023-07-25T14:50:42.615Z,42.30
2023-07-25T14:53:10.542Z,44.20
2023-07-25T14:55:38.524Z,43.20
2023-07-25T14:58:06.441Z,43.30
2023-07-25T15:00:35.795Z,43.40
2023-07-25T15:03:03.958Z,44.00
2023-07-25T15:05:32.070Z,44.20
2023-07-25T15:07:59.979Z,44.20
2023-07-25T15:10:27.974Z,44.80
2023-07-25T15:12:56.356Z,44.60
2023-07-25T15:15:24.382Z,44.80
2023-07-25T15:17:54.264Z,45.70
2023-07-25T15:20:24.077Z,45.70
2023-07-25T15:22:52.040Z,46.10
2023-07-25T15:25:20.194Z,46.50
2023-07-25T15:27:48.163Z,46.80
2023-07-25T15:30:16.211Z,47.10
2023-07-25T15:32:44.324Z,47.40
2023-07-25T15:35:13.691Z,46.70
2023-07-25T15:37:41.754Z,47.00
2023-07-25T15:40:11.179Z,68.50
2023-07-25T15:42:39.415Z,44.60
2023-07-25T15:45:07.827Z,44.70
2023-07-25T15:47:35.783Z,45.20
2023-07-25T15:50:03.921Z,44.70
2023-07-25T15:52:33.582Z,44.20
2023-07-25T15:55:01.547Z,44.00
2023-07-25T15:57:29.611Z,44.10
2023-07-25T15:59:57.520Z,44.70
2023-07-25T16:02:25.469Z,45.40
2023-07-25T16:04:53.377Z,45.70
2023-07-25T16:07:21.323Z,45.70
2023-07-25T16:09:50.618Z,45.90
2023-07-25T16:12:18.791Z,46.20
2023-07-25T16:14:46.685Z,47.30
2023-07-25T16:17:14.629Z,47.20
2023-07-25T16:19:42.645Z,47.10
2023-07-25T16:22:10.570Z,46.90
2023-07-25T16:24:38.543Z,47.30
2023-07-25T16:27:08.146Z,47.90
2023-07-25T16:29:36.097Z,48.10
2023-07-25T16:32:04.605Z,47.70
2023-07-25T16:34:34.675Z,47.20
2023-07-25T16:37:02.629Z,46.00
2023-07-25T16:39:30.584Z,46.30
2023-07-25T16:41:58.499Z,46.20
2023-07-25T16:44:27.824Z,46.10
2023-07-25T16:46:55.732Z,46.20
2023-07-25T16:49:23.694Z,46.10
2023-07-25T16:51:51.694Z,46.30
2023-07-25T16:54:20.286Z,46.60
2023-07-25T16:56:48.214Z,46.80
2023-07-25T16:59:16.128Z,46.80
2023-07-25T17:01:45.672Z,46.50
2023-07-25T17:04:13.703Z,46.00
2023-07-25T17:06:41.626Z,46.00
2023-07-25T17:09:09.568Z,46.40
2023-07-25T17:11:37.476Z,46.30
2023-07-25T17:14:05.769Z,45.80
2023-07-25T17:16:33.778Z,46.80
2023-07-25T17:19:03.201Z,45.10
2023-07-25T17:21:40.547Z,44.90
2023-07-25T17:24:09.810Z,45.10
2023-07-25T17:26:37.879Z,44.10
2023-07-25T17:29:06.881Z,43.90
2023-07-25T17:31:35.509Z,44.20
2023-07-25T17:34:05.282Z,43.40
2023-07-25T17:36:33.289Z,43.00
2023-07-25T17:39:01.196Z,42.50
2023-07-25T17:41:30.031Z,42.80
2023-07-25T17:43:58.149Z,42.40
2023-07-25T17:46:26.096Z,42.60
2023-07-25T17:48:54.589Z,42.60
2023-07-25T17:51:23.902Z,42.50
2023-07-25T17:53:51.886Z,42.50
2023-07-25T17:56:19.819Z,42.40
2023-07-25T17:58:47.763Z,42.50
2023-07-25T18:01:15.756Z,42.60
2023-07-25T18:03:43.771Z,43.10
2023-07-25T18:06:11.761Z,43.20
2023-07-25T18:08:41.032Z,43.50
2023-07-25T18:11:09.023Z,43.70
2023-07-25T18:13:36.965Z,44.10
2023-07-25T18:16:04.955Z,44.30
2023-07-25T18:18:32.893Z,44.40
2023-07-25T18:21:00.848Z,44.40
2023-07-25T18:23:28.755Z,44.50
2023-07-25T18:26:02.359Z,44.60
2023-07-25T18:28:30.388Z,45.00
2023-07-25T18:30:58.363Z,45.10
2023-07-25T18:33:26.347Z,45.00
2023-07-25T18:35:54.925Z,45.30
2023-07-25T18:38:22.879Z,45.40
2023-07-25T18:40:50.793Z,45.40
2023-07-25T18:43:20.647Z,45.60
2023-07-25T18:45:48.616Z,45.80
2023-07-25T18:48:16.577Z,45.80
2023-07-25T18:50:44.846Z,45.70
2023-07-25T18:53:12.822Z,45.90
2023-07-25T18:55:41.175Z,45.90
2023-07-25T18:58:09.124Z,46.00
2023-07-25T19:00:38.524Z,46.00
2023-07-25T19:03:06.689Z,46.00
2023-07-25T19:05:34.668Z,46.10
2023-07-25T19:08:02.596Z,46.10
2023-07-25T19:10:30.593Z,46.20
2023-07-25T19:12:58.556Z,46.30
2023-07-25T19:15:26.566Z,46.30
2023-07-25T19:17:55.902Z,46.30
2023-07-25T19:20:23.881Z,46.60
2023-07-25T19:22:51.794Z,46.80
2023-07-25T19:25:19.767Z,46.90
2023-07-25T19:27:49.247Z,47.10
2023-07-25T19:30:17.254Z,47.00
2023-07-25T19:32:45.879Z,47.00
2023-07-25T19:35:15.220Z,47.00
2023-07-25T19:37:43.117Z,46.90
2023-07-25T19:40:11.368Z,46.80
2023-07-25T19:42:39.631Z,47.00
2023-07-25T19:45:08.016Z,46.70
2023-07-25T19:47:35.993Z,46.90
2023-07-25T19:50:04.218Z,46.70
2023-07-25T19:52:33.511Z,46.70
2023-07-25T19:55:01.441Z,46.60
2023-07-25T19:57:29.410Z,46.60
2023-07-25T19:59:57.369Z,46.40
2023-07-25T20:02:25.495Z,46.60
2023-07-25T20:04:53.439Z,46.70
2023-07-25T20:07:21.523Z,46.70
2023-07-25T20:09:50.840Z,46.70
2023-07-25T20:12:18.809Z,46.60
2023-07-25T20:14:46.722Z,46.80
2023-07-25T20:17:14.684Z,46.80
2023-07-25T20:19:42.586Z,47.40
2023-07-25T20:22:10.545Z,48.10
2023-07-25T20:24:38.506Z,48.40
2023-07-25T20:27:08.009Z,48.50
2023-07-25T20:29:35.914Z,48.20
2023-07-25T20:32:03.922Z,48.00
2023-07-25T20:34:32.037Z,48.30
2023-07-25T20:36:59.991Z,48.20
2023-07-25T20:39:29.481Z,48.30
2023-07-25T20:41:57.500Z,48.70
2023-07-25T20:44:26.949Z,48.80
2023-07-25T20:46:54.928Z,48.70
2023-07-25T20:49:22.908Z,48.70
2023-07-25T20:51:50.863Z,49.60
2023-07-25T20:54:18.848Z,50.50
2023-07-25T20:56:46.838Z,50.90
2023-07-25T20:59:15.858Z,50.80
2023-07-25T21:01:45.206Z,50.40
2023-07-25T21:04:13.244Z,50.10
2023-07-25T21:06:41.302Z,50.00
2023-07-25T21:09:09.290Z,49.70
2023-07-25T21:11:37.198Z,49.50
2023-07-25T21:14:05.136Z,52.00
2023-07-25T21:16:33.322Z,50.80
2023-07-25T21:19:02.929Z,50.20
2023-07-25T21:21:31.124Z,50.30
2023-07-25T21:23:59.290Z,50.40
2023-07-25T21:26:27.224Z,50.20
2023-07-25T21:28:55.151Z,50.10
2023-07-25T21:31:23.092Z,50.40
2023-07-25T21:33:51.077Z,50.50
2023-07-25T21:36:20.526Z,50.90
2023-07-25T21:38:48.965Z,50.40
2023-07-25T21:41:16.979Z,50.50
2023-07-25T21:43:46.124Z,51.10
2023-07-25T21:46:14.083Z,51.50
2023-07-25T21:48:42.326Z,51.70
2023-07-25T21:51:10.329Z,51.80
2023-07-25T21:53:39.637Z,52.20
2023-07-25T21:56:07.599Z,51.90
2023-07-25T21:58:35.730Z,51.70
2023-07-25T22:01:03.658Z,51.70
2023-07-25T22:03:32.964Z,51.90
2023-07-25T22:06:01.397Z,52.00
2023-07-25T22:08:29.338Z,51.90
2023-07-25T22:10:58.722Z,52.10
2023-07-25T22:13:26.711Z,52.20
2023-07-25T22:15:54.857Z,52.20
2023-07-25T22:18:22.926Z,52.20
2023-07-25T22:20:52.922Z,52.30
2023-07-25T22:23:21.796Z,52.50
2023-07-25T22:25:50.000Z,52.40
2023-07-25T22:28:19.337Z,52.50
2023-07-25T22:30:47.407Z,52.60
2023-07-25T22:33:15.399Z,52.70
2023-07-25T22:35:43.327Z,52.80
2023-07-25T22:38:11.326Z,52.90
2023-07-25T22:40:39.955Z,53.00
2023-07-25T22:43:07.934Z,53.10
2023-07-25T22:45:37.263Z,53.10
2023-07-25T22:48:05.389Z,53.30
2023-07-25T22:50:33.336Z,53.40
2023-07-25T22:53:01.275Z,53.50
2023-07-25T22:55:29.290Z,53.70
2023-07-25T22:57:57.216Z,53.60
2023-07-25T23:00:25.161Z,53.60
2023-07-25T23:02:54.573Z,53.80
2023-07-25T23:05:22.687Z,53.90
2023-07-25T23:07:50.595Z,54.00
2023-07-25T23:10:18.729Z,54.00
2023-07-25T23:12:47.005Z,54.20
2023-07-25T23:15:14.958Z,57.00
2023-07-25T23:17:42.972Z,56.10
2023-07-25T23:20:12.836Z,55.50
2023-07-25T23:22:40.739Z,55.50
2023-07-25T23:25:08.967Z,55.60
2023-07-25T23:27:36.860Z,55.60
2023-07-25T23:30:05.117Z,55.40
2023-07-25T23:32:33.098Z,55.40
2023-07-25T23:35:01.039Z,55.40
2023-07-25T23:37:30.359Z,55.40
2023-07-25T23:39:58.253Z,55.50
2023-07-25T23:42:26.179Z,55.50
2023-07-25T23:44:54.104Z,55.60
2023-07-25T23:47:22.009Z,55.50
2023-07-25T23:49:50.049Z,55.60
2023-07-25T23:52:17.972Z,55.50
2023-07-25T23:54:47.297Z,55.70
2023-07-25T23:57:15.224Z,55.80
2023-07-25T23:59:43.199Z,55.70
